Time;durP1;ratioP1;P1;durP2;ratioP2;P2;SDS_P1;SDS_P2;PMS_P1;PMS_P2;Temp;Humidity;BMP_temperature;BMP_pressure;BME280_temperature;BME280_humidity;BME280_pressure;Samples;Min_cycle;Max_cycle;Signal;HPM_P1;HPM_P2
2021/11/18 00:00:55;;;;;;;23.83;12.27;;;7.50;99.90;;;;;;5054033;28;20185;-83
2021/11/18 00:03:22;;;;;;;26.63;12.53;;;7.40;99.90;;;;;;5052617;28;20259;-82
2021/11/18 00:05:48;;;;;;;26.17;12.50;;;7.40;99.90;;;;;;5052452;28;20664;-83
2021/11/18 00:08:14;;;;;;;23.13;11.87;;;7.40;99.90;;;;;;5069371;28;20669;-83
2021/11/18 00:10:52;;;;;;;20.40;12.57;;;7.40;99.90;;;;;;5068591;28;20649;-83
2021/11/18 00:13:19;;;;;;;21.87;12.80;;;7.50;99.90;;;;;;5052178;28;20177;-83
2021/11/18 00:15:45;;;;;;;21.57;12.20;;;7.30;99.90;;;;;;5066560;28;20196;-82
2021/11/18 00:18:15;;;;;;;22.37;13.20;;;7.20;99.90;;;;;;5067325;28;20173;-82
2021/11/18 00:20:45;;;;;;;21.47;12.57;;;7.40;99.90;;;;;;5067146;28;20189;-82
2021/11/18 00:23:11;;;;;;;23.67;12.90;;;7.20;99.90;;;;;;5058229;28;20250;-82
2021/11/18 00:25:38;;;;;;;26.97;12.60;;;7.30;99.90;;;;;;5053184;28;20169;-83
2021/11/18 00:28:04;;;;;;;29.13;13.47;;;7.40;99.90;;;;;;5053339;28;20242;-83
2021/11/18 00:30:33;;;;;;;22.57;12.57;;;7.50;99.90;;;;;;5057645;28;20173;-83
2021/11/18 00:32:59;;;;;;;24.73;13.60;;;7.30;99.90;;;;;;5053878;28;20227;-83
2021/11/18 00:35:28;;;;;;;26.43;12.63;;;7.30;99.90;;;;;;5052993;28;20173;-84
2021/11/18 00:37:55;;;;;;;25.10;13.93;;;7.20;99.90;;;;;;5054639;28;20198;-83
2021/11/18 00:40:27;;;;;;;24.40;13.47;;;7.20;99.90;;;;;;5060402;28;20566;-82
2021/11/18 00:42:53;;;;;;;27.63;13.53;;;7.30;99.90;;;;;;5059172;28;20188;-83
2021/11/18 00:45:24;;;;;;;23.80;13.57;;;7.50;99.90;;;;;;5062014;28;20173;-84
2021/11/18 00:47:53;;;;;;;21.63;13.17;;;7.20;99.90;;;;;;5062721;28;20193;-82
2021/11/18 00:50:24;;;;;;;26.10;13.13;;;7.20;99.90;;;;;;5057761;28;20187;-84
2021/11/18 00:52:50;;;;;;;24.00;12.00;;;7.20;99.90;;;;;;5055495;28;20614;-85
2021/11/18 00:55:17;;;;;;;24.07;12.57;;;7.10;99.90;;;;;;5055912;28;20176;-85
2021/11/18 00:57:42;;;;;;;26.87;13.47;;;7.00;99.90;;;;;;5056361;28;20268;-85
2021/11/18 01:00:31;;;;;;;27.10;13.17;;;7.10;99.90;;;;;;5053283;28;20573;-83
2021/11/18 01:02:58;;;;;;;27.00;13.07;;;7.00;99.90;;;;;;5055635;28;20176;-84
2021/11/18 01:05:28;;;;;;;28.77;13.60;;;6.90;99.90;;;;;;5055586;28;20626;-82
2021/11/18 01:07:55;;;;;;;27.73;13.33;;;7.00;99.90;;;;;;5056743;28;20205;-83
2021/11/18 01:10:23;;;;;;;30.03;14.40;;;7.00;99.90;;;;;;5057039;28;20541;-84
2021/11/18 01:12:49;;;;;;;25.73;13.77;;;7.00;99.90;;;;;;5055959;28;20169;-83
2021/11/18 01:15:18;;;;;;;26.13;13.67;;;7.00;99.90;;;;;;5055486;28;20176;-84
2021/11/18 01:17:44;;;;;;;24.10;13.03;;;7.20;99.90;;;;;;5056440;28;20185;-84
2021/11/18 01:20:11;;;;;;;25.37;13.43;;;7.10;99.90;;;;;;5059501;28;20169;-83
2021/11/18 01:22:38;;;;;;;25.67;13.50;;;7.10;99.90;;;;;;5056281;28;20205;-82
2021/11/18 01:25:04;;;;;;;25.13;13.43;;;7.10;99.90;;;;;;5055646;28;20231;-83
2021/11/18 01:27:30;;;;;;;26.73;13.43;;;7.00;99.90;;;;;;5054900;28;20229;-83
2021/11/18 01:29:56;;;;;;;24.77;13.97;;;7.00;99.90;;;;;;5055442;28;20176;-84
2021/11/18 01:32:22;;;;;;;26.87;13.27;;;6.90;99.90;;;;;;5055484;28;20324;-84
2021/11/18 01:34:48;;;;;;;29.63;13.43;;;7.00;99.90;;;;;;5055404;28;20173;-84
2021/11/18 01:37:14;;;;;;;23.43;13.50;;;7.30;99.90;;;;;;5055307;28;20169;-84
2021/11/18 01:39:40;;;;;;;26.27;13.73;;;7.10;99.90;;;;;;5056742;28;20215;-84
2021/11/18 01:42:06;;;;;;;29.03;13.80;;;7.00;99.90;;;;;;5056591;28;20173;-84
2021/11/18 01:44:37;;;;;;;25.23;14.60;;;6.90;99.90;;;;;;5055078;28;20291;-83
2021/11/18 01:47:04;;;;;;;32.53;13.87;;;6.90;99.90;;;;;;5055800;28;20201;-83
2021/11/18 01:49:30;;;;;;;24.23;13.70;;;6.90;99.90;;;;;;5054840;28;20188;-83
2021/11/18 01:51:59;;;;;;;21.83;13.83;;;6.80;99.90;;;;;;5064360;28;20179;-82
2021/11/18 01:54:30;;;;;;;28.50;14.47;;;6.90;99.90;;;;;;5068032;28;20609;-82
2021/11/18 01:56:56;;;;;;;24.90;14.53;;;6.90;99.90;;;;;;5067257;28;20201;-84
2021/11/18 01:59:27;;;;;;;27.90;15.40;;;6.90;99.90;;;;;;5079580;28;20176;-83
2021/11/18 02:01:55;;;;;;;26.73;15.43;;;7.00;99.90;;;;;;5058312;28;20188;-83
2021/11/18 02:04:24;;;;;;;24.07;14.77;;;7.10;99.90;;;;;;5058556;28;20184;-83
2021/11/18 02:06:53;;;;;;;25.93;14.70;;;7.20;99.90;;;;;;5054865;28;20243;-83
2021/11/18 02:09:23;;;;;;;25.80;15.20;;;7.10;99.90;;;;;;5054350;28;20177;-83
2021/11/18 02:11:56;;;;;;;29.47;16.50;;;7.40;99.90;;;;;;5054410;28;20177;-82
2021/11/18 02:14:26;;;;;;;26.03;15.20;;;7.20;99.90;;;;;;5054295;28;20180;-83
2021/11/18 02:16:55;;;;;;;26.13;14.13;;;7.20;99.90;;;;;;5054240;28;20246;-83
2021/11/18 02:19:21;;;;;;;27.83;13.80;;;7.00;99.90;;;;;;5055159;28;20173;-83
2021/11/18 02:21:49;;;;;;;26.07;14.67;;;7.00;99.90;;;;;;5054390;28;20207;-84
2021/11/18 02:24:41;;;;;;;24.60;13.00;;;6.90;99.90;;;;;;5053930;28;20744;-83
2021/11/18 02:27:09;;;;;;;27.27;13.90;;;6.90;99.90;;;;;;5053767;28;20201;-83
2021/11/18 02:29:36;;;;;;;22.80;13.90;;;6.80;99.90;;;;;;5054207;28;20660;-83
2021/11/18 02:32:06;;;;;;;30.50;15.60;;;6.80;99.90;;;;;;5054528;28;20173;-86
2021/11/18 02:34:50;;;;;;;27.27;15.13;;;6.80;99.90;;;;;;5064166;28;20657;-83
2021/11/18 02:37:16;;;;;;;29.33;14.13;;;6.80;99.90;;;;;;5063178;28;20625;-84
2021/11/18 02:39:41;;;;;;;28.00;14.67;;;6.80;99.90;;;;;;5054149;28;20256;-84
2021/11/18 02:42:09;;;;;;;24.50;13.87;;;6.80;99.90;;;;;;5054088;28;20204;-83
2021/11/18 02:44:36;;;;;;;27.50;14.27;;;6.80;99.90;;;;;;5054014;28;20207;-84
2021/11/18 02:47:06;;;;;;;31.47;16.40;;;6.80;99.90;;;;;;5054050;28;20244;-84
2021/11/18 02:49:33;;;;;;;25.43;15.73;;;6.80;99.90;;;;;;5053900;28;20176;-83
2021/11/18 02:51:58;;;;;;;27.97;15.10;;;6.90;99.90;;;;;;5053978;28;20176;-84
2021/11/18 02:54:24;;;;;;;25.20;15.07;;;7.20;99.90;;;;;;5053702;28;20262;-83
2021/11/18 02:56:52;;;;;;;27.23;16.30;;;7.10;99.90;;;;;;5070519;28;20173;-83
2021/11/18 02:59:19;;;;;;;25.80;16.10;;;7.10;99.90;;;;;;5053298;28;20263;-83
2021/11/18 03:01:46;;;;;;;34.60;16.33;;;7.00;99.90;;;;;;5052896;28;20199;-83
2021/11/18 03:04:14;;;;;;;23.00;14.87;;;6.90;99.90;;;;;;5054868;28;20200;-82
2021/11/18 03:06:41;;;;;;;27.07;15.07;;;6.80;99.90;;;;;;5052968;28;20177;-83
2021/11/18 03:09:07;;;;;;;26.67;15.63;;;6.90;99.90;;;;;;5054574;28;20171;-82
2021/11/18 03:11:33;;;;;;;24.37;14.77;;;6.90;99.90;;;;;;5052925;28;20173;-84
2021/11/18 03:13:59;;;;;;;35.17;16.10;;;6.80;99.90;;;;;;5053009;28;20181;-83
2021/11/18 03:16:25;;;;;;;29.30;15.47;;;6.90;99.90;;;;;;5053940;28;20632;-83
2021/11/18 03:18:51;;;;;;;23.97;14.70;;;6.70;99.90;;;;;;5054202;28;20651;-83
2021/11/18 03:21:24;;;;;;;28.40;15.53;;;6.60;99.90;;;;;;5069358;28;20723;-84
2021/11/18 03:23:51;;;;;;;24.43;14.80;;;6.60;99.90;;;;;;5052365;28;20657;-85
2021/11/18 03:26:21;;;;;;;27.13;15.30;;;6.60;99.90;;;;;;5052897;28;20187;-83
2021/11/18 03:28:47;;;;;;;30.90;15.90;;;6.60;99.90;;;;;;5052774;28;20216;-83
2021/11/18 03:31:14;;;;;;;29.13;16.73;;;6.60;99.90;;;;;;5069227;28;20177;-83
2021/11/18 03:33:45;;;;;;;24.87;15.30;;;6.50;99.90;;;;;;5052677;28;20540;-83
2021/11/18 03:36:11;;;;;;;26.87;15.00;;;6.50;99.90;;;;;;5057108;28;20617;-84
2021/11/18 03:38:39;;;;;;;32.67;16.07;;;6.50;99.90;;;;;;5056846;28;20434;-83
2021/11/18 03:41:06;;;;;;;28.07;15.87;;;6.60;99.90;;;;;;5073466;28;20210;-83
2021/11/18 03:43:36;;;;;;;27.87;16.57;;;6.70;99.90;;;;;;5055315;28;20168;-83
2021/11/18 03:46:03;;;;;;;29.57;15.67;;;6.70;99.90;;;;;;5053586;28;20518;-83
2021/11/18 03:48:33;;;;;;;29.07;15.40;;;6.60;99.90;;;;;;5052446;28;20749;-83
2021/11/18 03:51:01;;;;;;;29.33;15.77;;;6.60;99.90;;;;;;5052423;28;20260;-83
2021/11/18 03:53:29;;;;;;;32.27;16.23;;;6.60;99.90;;;;;;5052592;28;20174;-83
2021/11/18 03:55:55;;;;;;;30.17;16.27;;;6.50;99.90;;;;;;5052593;28;20169;-84
2021/11/18 03:58:20;;;;;;;27.17;15.30;;;6.50;99.90;;;;;;5053788;28;20196;-83
2021/11/18 04:00:47;;;;;;;29.40;15.37;;;6.50;99.90;;;;;;5056544;28;20559;-83
2021/11/18 04:03:14;;;;;;;25.60;14.97;;;6.50;99.90;;;;;;5059200;28;20228;-84
2021/11/18 04:05:42;;;;;;;25.37;15.17;;;6.40;99.90;;;;;;5059486;28;20176;-83
2021/11/18 04:08:08;;;;;;;28.67;15.33;;;6.40;99.90;;;;;;5058873;28;20238;-83
2021/11/18 04:10:36;;;;;;;28.57;15.30;;;6.40;99.90;;;;;;5057566;28;20191;-83
2021/11/18 04:13:03;;;;;;;29.10;15.67;;;6.40;99.90;;;;;;5053919;28;20187;-84
2021/11/18 04:15:30;;;;;;;29.27;15.53;;;6.40;99.90;;;;;;5051921;28;20250;-83
2021/11/18 04:17:57;;;;;;;24.73;14.00;;;6.30;99.90;;;;;;5069462;28;20179;-83
2021/11/18 04:20:24;;;;;;;30.50;16.10;;;6.30;99.90;;;;;;5054937;28;20173;-84
2021/11/18 04:22:52;;;;;;;27.67;16.47;;;6.40;99.90;;;;;;5053767;28;20284;-83
2021/11/18 04:25:21;;;;;;;26.30;15.03;;;6.30;99.90;;;;;;5057412;28;20173;-83
2021/11/18 04:27:47;;;;;;;28.00;15.13;;;6.30;99.90;;;;;;5057138;28;20212;-82
2021/11/18 04:30:17;;;;;;;28.07;15.17;;;6.20;99.90;;;;;;5060187;28;20248;-83
2021/11/18 04:32:44;;;;;;;25.17;15.33;;;6.20;99.90;;;;;;5060356;28;20211;-82
2021/11/18 04:35:11;;;;;;;31.20;16.33;;;6.20;99.90;;;;;;5056944;28;20172;-82
2021/11/18 04:37:37;;;;;;;29.70;16.27;;;6.30;99.90;;;;;;5059306;28;20220;-82
2021/11/18 04:40:04;;;;;;;28.90;14.93;;;6.30;99.90;;;;;;5059416;28;20335;-83
2021/11/18 04:42:30;;;;;;;31.67;16.60;;;6.40;99.90;;;;;;5059588;28;20180;-83
2021/11/18 04:44:57;;;;;;;31.13;15.63;;;6.40;99.90;;;;;;5059732;28;20179;-85
2021/11/18 04:47:23;;;;;;;26.80;15.93;;;6.40;99.90;;;;;;5057098;28;20646;-83
2021/11/18 04:49:49;;;;;;;25.20;15.13;;;6.40;99.90;;;;;;5056790;28;20180;-82
2021/11/18 04:52:17;;;;;;;29.23;15.07;;;6.40;99.90;;;;;;5056927;28;20230;-82
2021/11/18 04:54:49;;;;;;;26.03;15.33;;;6.50;99.90;;;;;;5055629;28;20227;-81
2021/11/18 04:57:15;;;;;;;25.07;14.30;;;6.40;99.90;;;;;;5058444;28;20573;-83
2021/11/18 04:59:41;;;;;;;27.60;15.53;;;6.50;99.90;;;;;;5056608;28;20169;-83
2021/11/18 05:02:07;;;;;;;27.13;15.57;;;6.40;99.90;;;;;;5016769;28;1160593;-84
2021/11/18 05:04:34;;;;;;;28.07;15.67;;;6.50;99.90;;;;;;5057436;28;20226;-84
2021/11/18 05:06:59;;;;;;;32.60;16.10;;;6.40;99.90;;;;;;5059582;28;20197;-84
2021/11/18 05:09:25;;;;;;;28.57;15.97;;;6.40;99.90;;;;;;5057162;28;20247;-83
2021/11/18 05:11:54;;;;;;;26.97;14.57;;;6.30;99.90;;;;;;5058871;28;20222;-83
2021/11/18 05:14:23;;;;;;;25.37;15.33;;;6.40;99.90;;;;;;5059867;28;20177;-82
2021/11/18 05:16:48;;;;;;;27.83;15.13;;;6.30;99.90;;;;;;5059738;28;20184;-84
2021/11/18 05:19:14;;;;;;;23.67;15.13;;;6.30;99.90;;;;;;5075253;28;20177;-84
2021/11/18 05:21:41;;;;;;;22.80;14.83;;;6.30;99.90;;;;;;5058943;28;20191;-83
2021/11/18 05:24:07;;;;;;;25.97;15.33;;;6.40;99.90;;;;;;5073309;28;20566;-83
2021/11/18 05:26:35;;;;;;;23.27;14.40;;;6.30;99.90;;;;;;5059432;28;20173;-83
2021/11/18 05:29:03;;;;;;;26.23;14.50;;;6.30;99.90;;;;;;5060906;28;20641;-82
2021/11/18 05:31:30;;;;;;;29.97;14.90;;;6.40;99.90;;;;;;5061290;28;20251;-83
2021/11/18 05:33:57;;;;;;;27.10;14.97;;;6.50;99.90;;;;;;5058589;28;20173;-84
2021/11/18 05:36:23;;;;;;;30.03;14.67;;;6.40;99.90;;;;;;5057346;28;20264;-83
2021/11/18 05:38:49;;;;;;;25.43;15.07;;;6.30;99.90;;;;;;5074784;28;20227;-83
2021/11/18 05:41:17;;;;;;;24.60;14.27;;;6.30;99.90;;;;;;5061049;28;20169;-83
2021/11/18 05:43:44;;;;;;;23.83;13.20;;;6.20;99.90;;;;;;5059702;28;20165;-81
2021/11/18 05:46:12;;;;;;;30.23;14.27;;;6.30;99.90;;;;;;5059222;28;20165;-83
2021/11/18 05:48:38;;;;;;;29.93;14.47;;;6.30;99.90;;;;;;5061532;28;20217;-83
2021/11/18 05:51:09;;;;;;;28.33;13.83;;;6.30;99.90;;;;;;5059257;28;20227;-83
2021/11/18 05:53:41;;;;;;;25.87;13.83;;;6.30;99.90;;;;;;5080376;28;20196;-84
2021/11/18 05:56:12;;;;;;;29.17;14.80;;;6.30;99.90;;;;;;5058456;28;20176;-83
2021/11/18 05:58:40;;;;;;;27.37;14.20;;;6.30;99.90;;;;;;5059724;28;20259;-83
2021/11/18 06:01:09;;;;;;;26.80;13.73;;;6.20;99.90;;;;;;5061964;28;20196;-82
2021/11/18 06:03:35;;;;;;;23.60;14.50;;;6.30;99.90;;;;;;5059527;28;20230;-83
2021/11/18 06:06:01;;;;;;;28.47;14.03;;;6.30;99.90;;;;;;5060770;28;20210;-83
2021/11/18 06:08:27;;;;;;;25.90;13.83;;;6.30;99.90;;;;;;5061407;28;20657;-82
2021/11/18 06:10:53;;;;;;;25.97;13.83;;;6.50;99.90;;;;;;5084871;28;20259;-81
2021/11/18 06:13:19;;;;;;;23.97;13.47;;;6.30;99.90;;;;;;5087154;28;20177;-82
2021/11/18 06:15:46;;;;;;;24.00;13.37;;;6.30;99.90;;;;;;5074645;28;20183;-81
2021/11/18 06:18:12;;;;;;;24.63;13.80;;;6.30;99.90;;;;;;5068956;28;20204;-82
2021/11/18 06:20:39;;;;;;;26.33;14.00;;;6.60;99.90;;;;;;5069325;28;20197;-82
2021/11/18 06:23:06;;;;;;;26.50;14.03;;;6.40;99.90;;;;;;5071838;28;20699;-81
2021/11/18 06:25:33;;;;;;;24.10;14.33;;;6.50;99.90;;;;;;5069073;28;20196;-84
2021/11/18 06:27:58;;;;;;;27.63;13.50;;;6.40;99.90;;;;;;5077049;28;20217;-86
2021/11/18 06:30:31;;;;;;;22.67;13.17;;;6.30;99.90;;;;;;5062403;28;20176;-86
2021/11/18 06:32:57;;;;;;;27.40;14.23;;;6.40;99.90;;;;;;5075129;28;20161;-81
2021/11/18 06:35:23;;;;;;;27.30;13.80;;;6.40;99.90;;;;;;5064474;28;20183;-85
2021/11/18 06:37:49;;;;;;;21.80;13.30;;;6.50;99.90;;;;;;5056479;28;20230;-85
2021/11/18 06:40:17;;;;;;;24.33;14.03;;;6.50;99.90;;;;;;5056535;28;20209;-85
2021/11/18 06:42:44;;;;;;;25.30;13.97;;;6.50;99.90;;;;;;5071860;28;20181;-88
2021/11/18 06:45:12;;;;;;;21.00;12.60;;;6.40;99.90;;;;;;5048434;28;20653;-83
2021/11/18 06:47:38;;;;;;;23.23;13.60;;;6.30;99.90;;;;;;5049235;28;20212;-85
2021/11/18 06:50:04;;;;;;;24.70;14.20;;;6.50;99.90;;;;;;5094343;28;20181;-84
2021/11/18 06:52:30;;;;;;;32.03;13.60;;;6.30;99.90;;;;;;5077618;28;20180;-84
2021/11/18 06:54:56;;;;;;;24.53;12.97;;;6.30;99.90;;;;;;5071988;28;20188;-84
2021/11/18 06:57:22;;;;;;;23.73;12.87;;;6.30;99.90;;;;;;5076209;28;20157;-84
2021/11/18 06:59:49;;;;;;;20.67;12.97;;;6.20;99.90;;;;;;5076854;28;20169;-84
2021/11/18 07:02:20;;;;;;;27.20;13.67;;;6.30;99.90;;;;;;5085532;28;20189;-83
2021/11/18 07:04:48;;;;;;;26.50;14.87;;;6.30;99.90;;;;;;5064563;28;20280;-85
2021/11/18 07:07:18;;;;;;;24.33;13.30;;;6.30;99.90;;;;;;5075785;28;20378;-86
2021/11/18 07:09:47;;;;;;;24.50;13.13;;;6.40;99.90;;;;;;5074275;28;20218;-84
2021/11/18 07:12:16;;;;;;;21.87;13.10;;;6.30;99.90;;;;;;5071574;28;20177;-86
2021/11/18 07:14:42;;;;;;;24.47;14.00;;;6.30;99.90;;;;;;5059371;28;20184;-82
2021/11/18 07:17:08;;;;;;;25.23;12.53;;;6.40;99.90;;;;;;5075531;28;20570;-84
2021/11/18 07:19:35;;;;;;;25.97;13.30;;;6.30;99.90;;;;;;5073905;28;20176;-83
2021/11/18 07:22:01;;;;;;;27.80;14.27;;;6.50;99.90;;;;;;5076394;28;20191;-84
2021/11/18 07:24:28;;;;;;;24.40;13.33;;;6.30;99.90;;;;;;5078366;28;20165;-84
2021/11/18 07:26:54;;;;;;;24.03;13.37;;;6.30;99.90;;;;;;5054810;28;20295;-83
2021/11/18 07:29:22;;;;;;;27.77;13.20;;;6.30;99.90;;;;;;5056316;28;20192;-83
2021/11/18 07:31:51;;;;;;;26.10;13.23;;;6.30;99.90;;;;;;5063554;28;20175;-84
2021/11/18 07:34:18;;;;;;;27.57;13.03;;;6.30;99.90;;;;;;5063851;28;20191;-83
2021/11/18 07:36:45;;;;;;;27.40;13.07;;;6.30;99.90;;;;;;5058419;28;20574;-82
2021/11/18 07:39:11;;;;;;;23.63;12.47;;;6.30;99.90;;;;;;5060287;28;20736;-84
2021/11/18 07:41:39;;;;;;;27.30;13.97;;;6.30;99.90;;;;;;5054071;28;20185;-83
2021/11/18 07:44:05;;;;;;;25.37;12.77;;;6.40;99.90;;;;;;5034422;28;20168;-83
2021/11/18 07:46:30;;;;;;;23.80;13.00;;;6.40;99.90;;;;;;5040014;28;20271;-84
2021/11/18 07:48:58;;;;;;;26.37;13.57;;;6.50;99.90;;;;;;5051650;28;20261;-84
2021/11/18 07:51:25;;;;;;;25.47;13.17;;;6.50;99.90;;;;;;5059877;28;20206;-83
2021/11/18 07:53:52;;;;;;;23.93;13.50;;;6.50;99.90;;;;;;5060041;28;20184;-82
2021/11/18 07:56:21;;;;;;;26.37;12.70;;;6.50;99.90;;;;;;5034645;28;20181;-83
2021/11/18 07:58:47;;;;;;;25.53;12.93;;;6.50;99.90;;;;;;5052061;28;20179;-82
2021/11/18 08:01:14;;;;;;;25.50;13.47;;;6.50;99.90;;;;;;5040737;28;20291;-84
2021/11/18 08:03:40;;;;;;;22.27;11.83;;;6.60;99.90;;;;;;5035516;28;20180;-83
2021/11/18 08:06:09;;;;;;;20.10;11.57;;;6.60;99.90;;;;;;5049605;28;20185;-84
2021/11/18 08:08:34;;;;;;;24.27;12.93;;;6.60;99.90;;;;;;5050552;28;20702;-82
2021/11/18 08:11:00;;;;;;;23.17;12.30;;;6.70;99.90;;;;;;5052538;28;20173;-83
2021/11/18 08:13:27;;;;;;;21.50;12.23;;;6.70;99.90;;;;;;5052025;28;20188;-82
2021/11/18 08:15:52;;;;;;;22.60;12.40;;;6.80;99.90;;;;;;5048504;28;20200;-83
2021/11/18 08:18:18;;;;;;;22.93;12.70;;;6.80;99.90;;;;;;5050638;28;20189;-83
2021/11/18 08:20:44;;;;;;;28.37;13.00;;;6.90;99.90;;;;;;5051374;28;20594;-82
2021/11/18 08:23:09;;;;;;;19.23;10.87;;;7.00;99.90;;;;;;5052301;28;20193;-83
2021/11/18 08:25:36;;;;;;;25.17;11.77;;;7.10;99.90;;;;;;5051579;28;20177;-84
2021/11/18 08:28:03;;;;;;;23.50;12.17;;;7.10;99.90;;;;;;5045428;28;20556;-84
2021/11/18 08:30:31;;;;;;;27.63;12.43;;;7.10;99.90;;;;;;5053791;28;20172;-82
2021/11/18 08:32:59;;;;;;;19.00;11.50;;;7.00;99.90;;;;;;5053163;28;20184;-83
2021/11/18 08:35:31;;;;;;;21.90;11.97;;;7.10;99.90;;;;;;5052033;28;20184;-82
2021/11/18 08:38:01;;;;;;;23.23;11.50;;;7.10;99.90;;;;;;5051979;28;20183;-84
2021/11/18 08:40:27;;;;;;;21.07;11.53;;;7.20;99.90;;;;;;5052192;28;20235;-84
2021/11/18 08:42:53;;;;;;;20.30;10.03;;;7.20;99.90;;;;;;5051395;28;20892;-83
2021/11/18 08:45:19;;;;;;;19.77;10.73;;;7.20;99.90;;;;;;5052500;28;20173;-82
2021/11/18 08:47:46;;;;;;;21.70;10.37;;;7.30;99.90;;;;;;5047041;28;20217;-83
2021/11/18 08:50:15;;;;;;;20.63;11.27;;;7.30;99.90;;;;;;5051794;28;20710;-82
2021/11/18 08:52:41;;;;;;;25.40;10.80;;;7.30;99.90;;;;;;5053960;28;20272;-83
2021/11/18 08:55:11;;;;;;;24.37;11.37;;;7.40;99.90;;;;;;5052400;28;20177;-84
2021/11/18 08:57:38;;;;;;;18.60;10.73;;;7.50;99.90;;;;;;5049255;28;20205;-83
2021/11/18 09:00:07;;;;;;;21.77;11.43;;;7.70;99.90;;;;;;5052020;28;20189;-82
2021/11/18 09:02:33;;;;;;;18.97;10.93;;;7.60;99.90;;;;;;5049951;28;20567;-82
2021/11/18 09:04:59;;;;;;;19.37;10.87;;;7.70;99.90;;;;;;5050582;28;20181;-81
2021/11/18 09:07:24;;;;;;;22.87;12.00;;;7.80;99.90;;;;;;5050765;28;20231;-82
2021/11/18 09:09:50;;;;;;;19.83;11.03;;;7.80;99.90;;;;;;5050568;28;20180;-82
2021/11/18 09:12:16;;;;;;;27.07;11.97;;;7.90;99.90;;;;;;5052234;28;20181;-81
2021/11/18 09:14:41;;;;;;;21.43;11.10;;;8.00;99.90;;;;;;5050135;28;20192;-81
2021/11/18 09:17:10;;;;;;;27.43;12.17;;;8.10;99.90;;;;;;5046651;28;20178;-81
2021/11/18 09:19:38;;;;;;;26.00;12.97;;;8.20;99.90;;;;;;5031388;28;20266;-81
2021/11/18 09:22:07;;;;;;;26.97;11.47;;;8.20;99.90;;;;;;5031842;28;20181;-81
2021/11/18 09:24:56;;;;;;;17.57;11.90;;;8.30;99.90;;;;;;5033773;28;20549;-81
2021/11/18 09:27:41;;;;;;;48.57;27.63;;;8.40;99.90;;;;;;5051894;28;20205;-82
2021/11/18 09:30:09;;;;;;;25.00;11.50;;;8.40;99.90;;;;;;5054433;28;20199;-82
2021/11/18 09:32:37;;;;;;;20.37;10.97;;;8.50;99.90;;;;;;5053360;28;20182;-82
2021/11/18 09:35:07;;;;;;;25.83;12.13;;;8.60;99.90;;;;;;5054201;28;20184;-82
2021/11/18 09:37:34;;;;;;;22.27;11.47;;;8.70;99.90;;;;;;5055488;28;20187;-81
2021/11/18 09:40:00;;;;;;;22.07;11.33;;;8.60;99.90;;;;;;5054019;28;20235;-82
2021/11/18 09:42:32;;;;;;;23.20;11.93;;;8.60;99.90;;;;;;5058300;28;20172;-83
2021/11/18 09:45:07;;;;;;;22.90;11.87;;;8.60;99.90;;;;;;5056934;28;20256;-82
2021/11/18 09:48:30;;;;;;;27.00;12.00;;;8.70;99.90;;;;;;5054171;28;20219;-82
2021/11/18 09:51:09;;;;;;;20.00;11.97;;;8.90;99.90;;;;;;5044491;28;20185;-83
2021/11/18 09:54:24;;;;;;;24.33;11.53;;;9.10;99.90;;;;;;5053821;28;20302;-82
2021/11/18 09:57:01;;;;;;;24.20;11.63;;;9.10;99.90;;;;;;5029200;28;20216;-83
2021/11/18 09:59:41;;;;;;;18.80;10.43;;;9.10;99.90;;;;;;5055498;28;20177;-81
2021/11/18 10:02:35;;;;;;;16.63;9.73;;;9.40;99.90;;;;;;5049456;28;20180;-81
2021/11/18 10:05:07;;;;;;;21.37;13.30;;;9.40;99.90;;;;;;5055337;28;20645;-81
2021/11/18 10:07:49;;;;;;;25.27;15.60;;;9.30;99.90;;;;;;5056210;28;20557;-81
2021/11/18 10:10:28;;;;;;;20.97;10.60;;;9.30;99.90;;;;;;5056088;28;20165;-82
2021/11/18 10:13:17;;;;;;;22.00;11.73;;;9.30;99.90;;;;;;5054179;28;20655;-82
2021/11/18 10:15:50;;;;;;;18.47;10.27;;;9.50;99.90;;;;;;5054789;28;20701;-81
2021/11/18 10:18:26;;;;;;;18.70;11.00;;;9.30;99.90;;;;;;5049506;28;20178;-81
2021/11/18 10:21:01;;;;;;;23.67;11.07;;;9.60;99.90;;;;;;5039828;28;20188;-83
2021/11/18 10:23:30;;;;;;;17.83;9.83;;;9.70;99.90;;;;;;5058189;28;20264;-82
2021/11/18 10:26:05;;;;;;;19.00;9.73;;;9.80;99.90;;;;;;5060105;28;20181;-80
2021/11/18 10:28:47;;;;;;;18.20;9.43;;;9.70;99.90;;;;;;5064006;28;20204;-83
2021/11/18 10:31:19;;;;;;;18.70;10.30;;;9.70;99.90;;;;;;5063741;28;20176;-81
2021/11/18 10:33:56;;;;;;;14.63;9.57;;;9.70;99.90;;;;;;5061410;28;20188;-82
2021/11/18 10:36:45;;;;;;;20.20;9.70;;;9.70;99.90;;;;;;5052997;28;20197;-80
2021/11/18 10:39:54;;;;;;;22.03;9.80;;;9.80;99.90;;;;;;5056808;28;20169;-81
2021/11/18 10:42:19;;;;;;;25.60;10.37;;;9.80;99.90;;;;;;5033765;28;20679;-82
2021/11/18 10:45:01;;;;;;;20.57;10.10;;;10.00;99.90;;;;;;5054212;28;20176;-81
2021/11/18 10:47:39;;;;;;;19.47;10.00;;;10.10;99.90;;;;;;5053035;28;20282;-83
2021/11/18 10:50:14;;;;;;;18.43;9.77;;;10.20;99.90;;;;;;5052198;28;20207;-83
2021/11/18 10:52:47;;;;;;;17.60;9.33;;;10.20;99.90;;;;;;5047219;28;20178;-82
2021/11/18 10:55:27;;;;;;;18.23;10.27;;;10.40;99.90;;;;;;5052007;28;20181;-81
2021/11/18 10:58:09;;;;;;;24.47;10.57;;;10.40;99.80;;;;;;5050470;28;20176;-81
2021/11/18 11:00:41;;;;;;;22.67;9.63;;;10.60;98.90;;;;;;5053063;28;20196;-82
2021/11/18 11:03:43;;;;;;;19.77;10.17;;;10.70;98.30;;;;;;5055291;28;20188;-82
2021/11/18 11:06:11;;;;;;;20.20;10.00;;;10.70;98.50;;;;;;5014942;28;20209;-81
2021/11/18 11:08:40;;;;;;;18.83;9.90;;;10.90;97.70;;;;;;5046356;28;20319;-81
2021/11/18 11:11:21;;;;;;;18.67;9.80;;;10.90;97.60;;;;;;5041644;28;20162;-83
2021/11/18 11:14:20;;;;;;;21.13;9.43;;;11.00;97.60;;;;;;5032046;28;20523;-82
2021/11/18 11:17:03;;;;;;;21.20;10.13;;;10.90;97.00;;;;;;5032742;28;20247;-84
2021/11/18 11:20:02;;;;;;;22.07;10.20;;;10.90;97.40;;;;;;5039659;28;20212;-84
2021/11/18 11:22:42;;;;;;;19.50;10.60;;;10.90;97.40;;;;;;5066856;28;20208;-83
2021/11/18 11:25:42;;;;;;;22.27;9.93;;;11.10;97.20;;;;;;5046018;28;20188;-82
2021/11/18 11:28:10;;;;;;;14.57;9.63;;;11.20;96.30;;;;;;5050306;28;20208;-84
2021/11/18 11:30:46;;;;;;;18.47;9.17;;;11.20;96.50;;;;;;5044562;28;20207;-83
2021/11/18 11:33:39;;;;;;;15.63;9.07;;;11.10;96.10;;;;;;5043870;28;20173;-84
2021/11/18 11:36:27;;;;;;;21.13;9.47;;;11.20;96.50;;;;;;5046221;28;20185;-83
2021/11/18 11:39:12;;;;;;;21.53;9.73;;;11.40;95.60;;;;;;5051435;28;20196;-82
2021/11/18 11:41:56;;;;;;;22.30;9.37;;;11.60;94.80;;;;;;5051353;28;20256;-84
2021/11/18 11:44:47;;;;;;;18.93;8.67;;;11.60;94.70;;;;;;5051070;28;20617;-83
2021/11/18 11:47:16;;;;;;;24.73;9.13;;;11.60;94.20;;;;;;5014567;28;20290;-84
2021/11/18 11:50:02;;;;;;;15.77;7.93;;;11.70;93.90;;;;;;5048987;28;20663;-83
2021/11/18 11:52:47;;;;;;;20.97;7.80;;;11.70;94.30;;;;;;5051954;28;20522;-82
2021/11/18 11:55:29;;;;;;;18.13;7.83;;;11.80;92.90;;;;;;5052770;28;20177;-83
2021/11/18 11:58:19;;;;;;;18.57;6.97;;;12.00;91.40;;;;;;5050990;28;20587;-83
2021/11/18 12:00:55;;;;;;;16.97;7.13;;;12.00;91.30;;;;;;5045995;28;20200;-83
2021/11/18 12:03:38;;;;;;;21.90;7.60;;;12.00;91.40;;;;;;5050765;28;20176;-82
2021/11/18 12:06:21;;;;;;;18.77;8.03;;;12.00;90.70;;;;;;5051642;28;20180;-83
2021/11/18 12:08:55;;;;;;;22.47;8.03;;;11.90;91.40;;;;;;5050486;28;20223;-84
2021/11/18 12:11:35;;;;;;;18.93;8.50;;;11.80;91.90;;;;;;5048305;28;20181;-82
2021/11/18 12:14:09;;;;;;;18.40;7.53;;;11.90;92.00;;;;;;5050695;28;20259;-83
2021/11/18 12:16:47;;;;;;;17.63;7.33;;;12.00;91.30;;;;;;5050687;28;20294;-82
2021/11/18 12:19:27;;;;;;;19.47;7.80;;;12.00;90.80;;;;;;5041782;28;20215;-83
2021/11/18 12:21:53;;;;;;;16.80;7.53;;;12.20;90.00;;;;;;5041991;28;20188;-82
2021/11/18 12:24:22;;;;;;;23.40;7.73;;;12.20;88.10;;;;;;5042591;28;20161;-83
2021/11/18 12:26:50;;;;;;;17.87;7.33;;;12.10;90.30;;;;;;5056329;28;20173;-84
2021/11/18 12:29:35;;;;;;;16.90;6.90;;;12.30;88.90;;;;;;5044834;28;20195;-82
2021/11/18 12:32:16;;;;;;;16.90;6.93;;;12.40;86.80;;;;;;5051534;28;20181;-83
2021/11/18 12:34:59;;;;;;;18.07;6.60;;;12.50;84.80;;;;;;5050941;28;20208;-82
2021/11/18 12:37:43;;;;;;;14.77;6.70;;;12.50;84.30;;;;;;5051030;28;20177;-83
2021/11/18 12:40:17;;;;;;;18.17;7.33;;;12.50;85.10;;;;;;5050944;28;20192;-84
2021/11/18 12:43:03;;;;;;;19.57;7.07;;;12.50;84.80;;;;;;5044723;28;20181;-83
2021/11/18 12:46:00;;;;;;;18.83;6.67;;;12.60;83.60;;;;;;5042174;28;20687;-82
2021/11/18 12:48:51;;;;;;;18.40;6.80;;;12.70;81.90;;;;;;5049893;28;20699;-82
2021/11/18 12:51:43;;;;;;;18.60;7.53;;;12.80;80.90;;;;;;5051191;28;20173;-82
2021/11/18 12:54:09;;;;;;;15.93;6.50;;;12.70;80.60;;;;;;5050123;28;20267;-83